sensor_id;sensor_type;location;lat;lon;timestamp;temperature;humidity
11599;DHT22;5855;48.840;9.188;2023-07-31T00:00:58;16.40;99.90
11599;DHT22;5855;48.840;9.188;2023-07-31T00:03:27;16.40;99.90
11599;DHT22;5855;48.840;9.188;2023-07-31T00:05:56;16.40;99.90
11599;DHT22;5855;48.840;9.188;2023-07-31T00:08:24;16.40;99.90
11599;DHT22;5855;48.840;9.188;2023-07-31T00:10:52;16.40;99.90
11599;DHT22;5855;48.840;9.188;2023-07-31T00:13:19;16.50;99.90
11599;DHT22;5855;48.840;9.188;2023-07-31T00:15:46;16.50;99.90
11599;DHT22;5855;48.840;9.188;2023-07-31T00:18:13;16.40;99.90
11599;DHT22;5855;48.840;9.188;2023-07-31T00:20:39;16.20;99.90
11599;DHT22;5855;48.840;9.188;2023-07-31T00:23:06;16.20;99.90
11599;DHT22;5855;48.840;9.188;2023-07-31T00:25:35;16.10;99.90
11599;DHT22;5855;48.840;9.188;2023-07-31T00:28:02;16.10;99.90
11599;DHT22;5855;48.840;9.188;2023-07-31T00:30:28;16.20;99.90
11599;DHT22;5855;48.840;9.188;2023-07-31T00:32:55;16.20;99.90
11599;DHT22;5855;48.840;9.188;2023-07-31T00:35:22;16.10;99.90
11599;DHT22;5855;48.840;9.188;2023-07-31T00:37:49;16.10;99.90
11599;DHT22;5855;48.840;9.188;2023-07-31T00:40:16;16.10;99.90
11599;DHT22;5855;48.840;9.188;2023-07-31T00:42:44;16.10;99.90
11599;DHT22;5855;48.840;9.188;2023-07-31T00:45:11;15.90;99.90
11599;DHT22;5855;48.840;9.188;2023-07-31T00:47:38;15.80;99.90
11599;DHT22;5855;48.840;9.188;2023-07-31T00:50:06;15.70;99.90
11599;DHT22;5855;48.840;9.188;2023-07-31T00:52:33;15.60;99.90
11599;DHT22;5855;48.840;9.188;2023-07-31T00:55:00;15.60;99.90
11599;DHT22;5855;48.840;9.188;2023-07-31T00:57:27;15.50;99.90
11599;DHT22;5855;48.840;9.188;2023-07-31T00:59:55;15.70;99.90
11599;DHT22;5855;48.840;9.188;2023-07-31T01:02:22;15.90;99.90
11599;DHT22;5855;48.840;9.188;2023-07-31T01:04:49;15.90;99.90
11599;DHT22;5855;48.840;9.188;2023-07-31T01:07:22;15.90;99.90
11599;DHT22;5855;48.840;9.188;2023-07-31T01:09:59;16.00;99.90
11599;DHT22;5855;48.840;9.188;2023-07-31T01:12:30;15.90;99.90
11599;DHT22;5855;48.840;9.188;2023-07-31T01:15:07;15.80;99.90
11599;DHT22;5855;48.840;9.188;2023-07-31T01:17:36;15.90;99.90
11599;DHT22;5855;48.840;9.188;2023-07-31T01:20:05;15.80;99.90
11599;DHT22;5855;48.840;9.188;2023-07-31T01:22:56;15.80;99.90
11599;DHT22;5855;48.840;9.188;2023-07-31T01:28:13;15.70;99.90
11599;DHT22;5855;48.840;9.188;2023-07-31T01:30:43;15.70;99.90
11599;DHT22;5855;48.840;9.188;2023-07-31T01:33:11;15.70;99.90
11599;DHT22;5855;48.840;9.188;2023-07-31T01:35:40;15.70;99.90
11599;DHT22;5855;48.840;9.188;2023-07-31T01:38:07;15.70;99.90
11599;DHT22;5855;48.840;9.188;2023-07-31T01:40:34;15.70;99.90
11599;DHT22;5855;48.840;9.188;2023-07-31T01:43:00;15.80;99.90
11599;DHT22;5855;48.840;9.188;2023-07-31T01:45:29;15.80;99.90
11599;DHT22;5855;48.840;9.188;2023-07-31T01:47:56;15.80;99.90
11599;DHT22;5855;48.840;9.188;2023-07-31T01:50:22;15.80;99.90
11599;DHT22;5855;48.840;9.188;2023-07-31T01:52:49;15.80;99.90
11599;DHT22;5855;48.840;9.188;2023-07-31T01:55:16;15.80;99.90
11599;DHT22;5855;48.840;9.188;2023-07-31T01:57:43;15.70;99.90
11599;DHT22;5855;48.840;9.188;2023-07-31T02:00:10;15.80;99.90
11599;DHT22;5855;48.840;9.188;2023-07-31T02:02:41;15.80;99.90
11599;DHT22;5855;48.840;9.188;2023-07-31T02:05:08;15.80;99.90
11599;DHT22;5855;48.840;9.188;2023-07-31T02:07:35;15.70;99.90
11599;DHT22;5855;48.840;9.188;2023-07-31T02:10:02;15.80;99.90
11599;DHT22;5855;48.840;9.188;2023-07-31T02:12:29;15.80;99.90
11599;DHT22;5855;48.840;9.188;2023-07-31T02:14:57;15.80;99.90
11599;DHT22;5855;48.840;9.188;2023-07-31T02:17:24;15.80;99.90
11599;DHT22;5855;48.840;9.188;2023-07-31T02:19:53;15.90;99.90
11599;DHT22;5855;48.840;9.188;2023-07-31T02:22:20;15.90;99.90
11599;DHT22;5855;48.840;9.188;2023-07-31T02:24:47;15.90;99.90
11599;DHT22;5855;48.840;9.188;2023-07-31T02:27:14;15.90;99.90
11599;DHT22;5855;48.840;9.188;2023-07-31T02:29:40;15.90;99.90
11599;DHT22;5855;48.840;9.188;2023-07-31T02:32:07;15.90;99.90
11599;DHT22;5855;48.840;9.188;2023-07-31T02:34:34;15.90;99.90
11599;DHT22;5855;48.840;9.188;2023-07-31T02:37:02;15.90;99.90
11599;DHT22;5855;48.840;9.188;2023-07-31T02:39:29;15.90;99.90
11599;DHT22;5855;48.840;9.188;2023-07-31T02:41:56;15.90;99.90
11599;DHT22;5855;48.840;9.188;2023-07-31T02:44:23;15.90;99.90
11599;DHT22;5855;48.840;9.188;2023-07-31T02:46:50;15.90;99.90
11599;DHT22;5855;48.840;9.188;2023-07-31T02:49:16;15.80;99.90
11599;DHT22;5855;48.840;9.188;2023-07-31T02:51:45;15.80;99.90
11599;DHT22;5855;48.840;9.188;2023-07-31T02:54:14;15.80;99.90
11599;DHT22;5855;48.840;9.188;2023-07-31T02:56:40;15.70;99.90
11599;DHT22;5855;48.840;9.188;2023-07-31T02:59:07;15.70;99.90
11599;DHT22;5855;48.840;9.188;2023-07-31T03:01:34;15.80;99.90
11599;DHT22;5855;48.840;9.188;2023-07-31T03:04:01;15.80;99.90
11599;DHT22;5855;48.840;9.188;2023-07-31T03:06:28;15.80;99.90
11599;DHT22;5855;48.840;9.188;2023-07-31T03:08:55;15.80;99.90
11599;DHT22;5855;48.840;9.188;2023-07-31T03:11:23;15.80;99.90
11599;DHT22;5855;48.840;9.188;2023-07-31T03:13:50;15.80;99.90
11599;DHT22;5855;48.840;9.188;2023-07-31T03:16:16;15.80;99.90
11599;DHT22;5855;48.840;9.188;2023-07-31T03:18:43;15.70;99.90
11599;DHT22;5855;48.840;9.188;2023-07-31T03:21:10;15.70;99.90
11599;DHT22;5855;48.840;9.188;2023-07-31T03:23:37;15.70;99.90
11599;DHT22;5855;48.840;9.188;2023-07-31T03:26:07;15.70;99.90
11599;DHT22;5855;48.840;9.188;2023-07-31T03:28:35;15.70;99.90
11599;DHT22;5855;48.840;9.188;2023-07-31T03:31:02;15.70;99.90
11599;DHT22;5855;48.840;9.188;2023-07-31T03:33:29;15.70;99.90
11599;DHT22;5855;48.840;9.188;2023-07-31T03:35:56;15.70;99.90
11599;DHT22;5855;48.840;9.188;2023-07-31T03:38:23;15.70;99.90
11599;DHT22;5855;48.840;9.188;2023-07-31T03:40:50;15.70;99.90
11599;DHT22;5855;48.840;9.188;2023-07-31T03:43:17;15.70;99.90
11599;DHT22;5855;48.840;9.188;2023-07-31T03:45:45;15.70;99.90
11599;DHT22;5855;48.840;9.188;2023-07-31T03:48:14;15.80;99.90
11599;DHT22;5855;48.840;9.188;2023-07-31T03:50:41;15.70;99.90
11599;DHT22;5855;48.840;9.188;2023-07-31T03:53:08;15.60;99.90
11599;DHT22;5855;48.840;9.188;2023-07-31T03:55:35;15.60;99.90
11599;DHT22;5855;48.840;9.188;2023-07-31T03:58:01;15.60;99.90
11599;DHT22;5855;48.840;9.188;2023-07-31T04:00:28;15.60;99.90
11599;DHT22;5855;48.840;9.188;2023-07-31T04:02:56;15.60;99.90
11599;DHT22;5855;48.840;9.188;2023-07-31T04:05:23;15.60;99.90
11599;DHT22;5855;48.840;9.188;2023-07-31T04:07:50;15.70;99.90
11599;DHT22;5855;48.840;9.188;2023-07-31T04:10:17;15.70;99.90
11599;DHT22;5855;48.840;9.188;2023-07-31T04:12:44;15.80;99.90
11599;DHT22;5855;48.840;9.188;2023-07-31T04:15:11;15.80;99.90
11599;DHT22;5855;48.840;9.188;2023-07-31T04:17:38;15.80;99.90
11599;DHT22;5855;48.840;9.188;2023-07-31T04:20:07;16.00;99.90
11599;DHT22;5855;48.840;9.188;2023-07-31T04:22:34;16.10;99.90
11599;DHT22;5855;48.840;9.188;2023-07-31T04:25:01;16.20;99.90
11599;DHT22;5855;48.840;9.188;2023-07-31T04:27:28;16.20;99.90
11599;DHT22;5855;48.840;9.188;2023-07-31T04:29:54;16.20;99.90
11599;DHT22;5855;48.840;9.188;2023-07-31T04:32:21;16.20;99.90
11599;DHT22;5855;48.840;9.188;2023-07-31T04:34:48;16.30;99.90
11599;DHT22;5855;48.840;9.188;2023-07-31T04:37:16;16.30;99.90
11599;DHT22;5855;48.840;9.188;2023-07-31T04:39:43;16.40;99.90
11599;DHT22;5855;48.840;9.188;2023-07-31T04:42:10;16.40;99.90
11599;DHT22;5855;48.840;9.188;2023-07-31T04:44:37;16.50;99.90
11599;DHT22;5855;48.840;9.188;2023-07-31T04:47:04;16.70;99.90
11599;DHT22;5855;48.840;9.188;2023-07-31T04:49:31;16.70;99.90
11599;DHT22;5855;48.840;9.188;2023-07-31T04:51:58;16.80;99.90
11599;DHT22;5855;48.840;9.188;2023-07-31T04:54:27;16.80;99.90
11599;DHT22;5855;48.840;9.188;2023-07-31T04:56:53;16.70;99.90
11599;DHT22;5855;48.840;9.188;2023-07-31T04:59:20;16.70;99.90
11599;DHT22;5855;48.840;9.188;2023-07-31T05:01:47;16.90;99.90
11599;DHT22;5855;48.840;9.188;2023-07-31T05:04:14;16.80;99.90
11599;DHT22;5855;48.840;9.188;2023-07-31T05:06:42;16.90;99.90
11599;DHT22;5855;48.840;9.188;2023-07-31T05:09:08;17.00;99.90
11599;DHT22;5855;48.840;9.188;2023-07-31T05:11:37;17.00;99.90
11599;DHT22;5855;48.840;9.188;2023-07-31T05:14:05;17.00;99.90
11599;DHT22;5855;48.840;9.188;2023-07-31T05:16:35;17.10;99.90
11599;DHT22;5855;48.840;9.188;2023-07-31T05:19:02;17.10;99.90
11599;DHT22;5855;48.840;9.188;2023-07-31T05:21:29;17.10;99.90
11599;DHT22;5855;48.840;9.188;2023-07-31T05:23:56;17.10;99.90
11599;DHT22;5855;48.840;9.188;2023-07-31T05:26:23;17.20;99.90
11599;DHT22;5855;48.840;9.188;2023-07-31T05:31:44;17.30;99.90
11599;DHT22;5855;48.840;9.188;2023-07-31T05:34:11;17.20;99.90
11599;DHT22;5855;48.840;9.188;2023-07-31T05:36:38;17.30;99.90
11599;DHT22;5855;48.840;9.188;2023-07-31T05:39:05;17.40;99.90
11599;DHT22;5855;48.840;9.188;2023-07-31T05:41:35;17.50;99.90
11599;DHT22;5855;48.840;9.188;2023-07-31T05:44:03;17.50;99.90
11599;DHT22;5855;48.840;9.188;2023-07-31T05:46:30;17.60;99.90
11599;DHT22;5855;48.840;9.188;2023-07-31T05:48:57;17.60;99.90
11599;DHT22;5855;48.840;9.188;2023-07-31T05:51:26;17.70;99.90
11599;DHT22;5855;48.840;9.188;2023-07-31T05:53:53;17.80;99.90
11599;DHT22;5855;48.840;9.188;2023-07-31T05:56:19;17.90;99.90
11599;DHT22;5855;48.840;9.188;2023-07-31T05:58:46;17.90;99.90
11599;DHT22;5855;48.840;9.188;2023-07-31T06:01:15;17.90;99.90
11599;DHT22;5855;48.840;9.188;2023-07-31T06:03:42;17.90;99.90
11599;DHT22;5855;48.840;9.188;2023-07-31T06:06:10;18.00;99.90
11599;DHT22;5855;48.840;9.188;2023-07-31T06:08:39;18.10;99.90
11599;DHT22;5855;48.840;9.188;2023-07-31T06:11:06;18.20;99.90
11599;DHT22;5855;48.840;9.188;2023-07-31T06:13:34;18.10;99.90
11599;DHT22;5855;48.840;9.188;2023-07-31T06:16:01;18.20;99.90
11599;DHT22;5855;48.840;9.188;2023-07-31T06:18:32;18.30;99.90
11599;DHT22;5855;48.840;9.188;2023-07-31T06:20:59;18.40;99.90
11599;DHT22;5855;48.840;9.188;2023-07-31T06:23:26;18.40;99.90
11599;DHT22;5855;48.840;9.188;2023-07-31T06:25:52;18.60;99.90
11599;DHT22;5855;48.840;9.188;2023-07-31T06:28:19;18.70;99.90
11599;DHT22;5855;48.840;9.188;2023-07-31T06:30:46;18.70;99.90
11599;DHT22;5855;48.840;9.188;2023-07-31T06:33:13;19.00;99.90
11599;DHT22;5855;48.840;9.188;2023-07-31T06:35:41;19.20;99.90
11599;DHT22;5855;48.840;9.188;2023-07-31T06:38:10;19.40;99.90
11599;DHT22;5855;48.840;9.188;2023-07-31T06:40:37;19.50;99.90
11599;DHT22;5855;48.840;9.188;2023-07-31T06:43:04;19.60;99.90
11599;DHT22;5855;48.840;9.188;2023-07-31T06:45:33;19.50;99.90
11599;DHT22;5855;48.840;9.188;2023-07-31T06:48:01;19.60;99.90
11599;DHT22;5855;48.840;9.188;2023-07-31T06:50:28;19.60;99.90
11599;DHT22;5855;48.840;9.188;2023-07-31T06:52:56;19.80;99.90
11599;DHT22;5855;48.840;9.188;2023-07-31T06:55:24;20.00;99.90
11599;DHT22;5855;48.840;9.188;2023-07-31T06:57:53;20.00;99.90
11599;DHT22;5855;48.840;9.188;2023-07-31T07:00:21;20.00;99.90
11599;DHT22;5855;48.840;9.188;2023-07-31T07:02:48;20.00;99.90
11599;DHT22;5855;48.840;9.188;2023-07-31T07:05:15;20.20;99.90
11599;DHT22;5855;48.840;9.188;2023-07-31T07:07:43;20.20;99.90
11599;DHT22;5855;48.840;9.188;2023-07-31T07:10:11;20.40;99.90
11599;DHT22;5855;48.840;9.188;2023-07-31T07:12:38;20.40;99.90
11599;DHT22;5855;48.840;9.188;2023-07-31T07:15:06;20.30;99.90
11599;DHT22;5855;48.840;9.188;2023-07-31T07:17:33;20.30;99.90
11599;DHT22;5855;48.840;9.188;2023-07-31T07:20:00;20.30;99.90
11599;DHT22;5855;48.840;9.188;2023-07-31T07:22:28;20.50;99.90
11599;DHT22;5855;48.840;9.188;2023-07-31T07:24:55;20.50;99.90
11599;DHT22;5855;48.840;9.188;2023-07-31T07:27:23;20.70;99.90
11599;DHT22;5855;48.840;9.188;2023-07-31T07:29:51;20.70;99.90
11599;DHT22;5855;48.840;9.188;2023-07-31T07:32:18;20.80;99.90
11599;DHT22;5855;48.840;9.188;2023-07-31T07:34:46;20.80;99.90
11599;DHT22;5855;48.840;9.188;2023-07-31T07:37:14;20.70;99.90
11599;DHT22;5855;48.840;9.188;2023-07-31T07:39:41;20.70;99.90
11599;DHT22;5855;48.840;9.188;2023-07-31T07:42:07;20.70;99.90
11599;DHT22;5855;48.840;9.188;2023-07-31T07:44:36;20.80;99.90
11599;DHT22;5855;48.840;9.188;2023-07-31T07:47:03;20.90;99.90
11599;DHT22;5855;48.840;9.188;2023-07-31T07:49:32;20.90;99.90
11599;DHT22;5855;48.840;9.188;2023-07-31T07:51:59;20.90;99.90
11599;DHT22;5855;48.840;9.188;2023-07-31T07:54:26;20.70;99.90
11599;DHT22;5855;48.840;9.188;2023-07-31T07:56:53;20.80;99.90
11599;DHT22;5855;48.840;9.188;2023-07-31T07:59:20;21.00;99.90
11599;DHT22;5855;48.840;9.188;2023-07-31T08:01:48;21.20;99.90
11599;DHT22;5855;48.840;9.188;2023-07-31T08:04:15;21.20;99.90
11599;DHT22;5855;48.840;9.188;2023-07-31T08:06:42;21.50;99.90
11599;DHT22;5855;48.840;9.188;2023-07-31T08:09:08;21.60;99.90
11599;DHT22;5855;48.840;9.188;2023-07-31T08:11:35;21.60;99.90
11599;DHT22;5855;48.840;9.188;2023-07-31T08:14:02;21.50;99.90
11599;DHT22;5855;48.840;9.188;2023-07-31T08:16:29;21.40;99.90
11599;DHT22;5855;48.840;9.188;2023-07-31T08:18:57;21.30;99.90
11599;DHT22;5855;48.840;9.188;2023-07-31T08:21:24;21.40;99.90
11599;DHT22;5855;48.840;9.188;2023-07-31T08:23:51;21.50;99.90
11599;DHT22;5855;48.840;9.188;2023-07-31T08:26:18;21.70;99.90
11599;DHT22;5855;48.840;9.188;2023-07-31T08:28:46;22.00;99.90
11599;DHT22;5855;48.840;9.188;2023-07-31T08:31:13;22.10;99.90
11599;DHT22;5855;48.840;9.188;2023-07-31T08:33:40;22.00;99.90
11599;DHT22;5855;48.840;9.188;2023-07-31T08:36:08;21.90;99.90
11599;DHT22;5855;48.840;9.188;2023-07-31T08:38:35;22.10;99.90
11599;DHT22;5855;48.840;9.188;2023-07-31T08:41:03;22.30;99.90
11599;DHT22;5855;48.840;9.188;2023-07-31T08:43:30;22.40;99.90
11599;DHT22;5855;48.840;9.188;2023-07-31T08:45:57;22.70;99.90
11599;DHT22;5855;48.840;9.188;2023-07-31T08:48:24;22.80;99.90
11599;DHT22;5855;48.840;9.188;2023-07-31T08:50:52;23.00;99.90
11599;DHT22;5855;48.840;9.188;2023-07-31T08:53:21;23.10;99.90
11599;DHT22;5855;48.840;9.188;2023-07-31T08:55:48;23.10;99.90
11599;DHT22;5855;48.840;9.188;2023-07-31T08:58:17;22.90;99.90
11599;DHT22;5855;48.840;9.188;2023-07-31T09:00:49;22.80;99.90
11599;DHT22;5855;48.840;9.188;2023-07-31T09:03:18;22.80;99.90
11599;DHT22;5855;48.840;9.188;2023-07-31T09:05:46;22.70;99.90
11599;DHT22;5855;48.840;9.188;2023-07-31T09:08:14;22.70;99.90
11599;DHT22;5855;48.840;9.188;2023-07-31T09:10:46;23.10;99.90
11599;DHT22;5855;48.840;9.188;2023-07-31T09:13:13;22.90;99.90
11599;DHT22;5855;48.840;9.188;2023-07-31T09:15:43;23.00;99.90
11599;DHT22;5855;48.840;9.188;2023-07-31T09:18:11;22.90;99.90
11599;DHT22;5855;48.840;9.188;2023-07-31T09:20:38;23.00;99.90
11599;DHT22;5855;48.840;9.188;2023-07-31T09:23:09;23.20;99.90
11599;DHT22;5855;48.840;9.188;2023-07-31T09:25:36;23.00;99.90
11599;DHT22;5855;48.840;9.188;2023-07-31T09:28:06;23.00;99.90
11599;DHT22;5855;48.840;9.188;2023-07-31T09:30:45;23.20;99.90
11599;DHT22;5855;48.840;9.188;2023-07-31T09:33:12;23.40;99.90
11599;DHT22;5855;48.840;9.188;2023-07-31T09:35:39;23.60;99.90
11599;DHT22;5855;48.840;9.188;2023-07-31T09:38:08;23.30;99.90
11599;DHT22;5855;48.840;9.188;2023-07-31T09:40:37;23.30;99.90
11599;DHT22;5855;48.840;9.188;2023-07-31T09:43:07;23.00;99.90
11599;DHT22;5855;48.840;9.188;2023-07-31T09:45:36;23.00;99.90
11599;DHT22;5855;48.840;9.188;2023-07-31T09:48:07;22.90;99.90
11599;DHT22;5855;48.840;9.188;2023-07-31T09:50:36;22.90;99.90
11599;DHT22;5855;48.840;9.188;2023-07-31T09:53:04;23.20;99.90
11599;DHT22;5855;48.840;9.188;2023-07-31T09:55:31;23.40;99.90
11599;DHT22;5855;48.840;9.188;2023-07-31T09:57:58;23.40;99.90
11599;DHT22;5855;48.840;9.188;2023-07-31T10:00:28;23.60;99.90
11599;DHT22;5855;48.840;9.188;2023-07-31T10:02:58;24.00;99.90
11599;DHT22;5855;48.840;9.188;2023-07-31T10:05:31;23.80;99.90
11599;DHT22;5855;48.840;9.188;2023-07-31T10:07:59;23.40;99.90
11599;DHT22;5855;48.840;9.188;2023-07-31T10:10:26;23.50;99.90
11599;DHT22;5855;48.840;9.188;2023-07-31T10:12:54;24.00;99.90
11599;DHT22;5855;48.840;9.188;2023-07-31T10:15:22;24.40;99.90
11599;DHT22;5855;48.840;9.188;2023-07-31T10:17:51;24.50;99.90
11599;DHT22;5855;48.840;9.188;2023-07-31T10:20:18;24.40;99.90
11599;DHT22;5855;48.840;9.188;2023-07-31T10:22:45;24.10;99.90
11599;DHT22;5855;48.840;9.188;2023-07-31T10:25:12;24.10;99.90
11599;DHT22;5855;48.840;9.188;2023-07-31T10:27:39;24.30;99.90
11599;DHT22;5855;48.840;9.188;2023-07-31T10:30:10;24.10;99.90
11599;DHT22;5855;48.840;9.188;2023-07-31T10:32:38;23.90;99.90
11599;DHT22;5855;48.840;9.188;2023-07-31T10:35:11;24.00;99.90
11599;DHT22;5855;48.840;9.188;2023-07-31T10:37:39;24.20;99.90
11599;DHT22;5855;48.840;9.188;2023-07-31T10:40:10;24.30;99.90
11599;DHT22;5855;48.840;9.188;2023-07-31T10:42:45;24.70;99.90
11599;DHT22;5855;48.840;9.188;2023-07-31T10:45:13;24.90;99.60
11599;DHT22;5855;48.840;9.188;2023-07-31T10:47:43;25.00;99.40
11599;DHT22;5855;48.840;9.188;2023-07-31T10:50:17;24.70;98.40
11599;DHT22;5855;48.840;9.188;2023-07-31T10:52:47;24.80;98.90
11599;DHT22;5855;48.840;9.188;2023-07-31T10:55:29;25.10;98.30
11599;DHT22;5855;48.840;9.188;2023-07-31T10:57:58;25.30;98.70
11599;DHT22;5855;48.840;9.188;2023-07-31T11:00:26;25.80;97.30
11599;DHT22;5855;48.840;9.188;2023-07-31T11:02:58;25.90;97.50
11599;DHT22;5855;48.840;9.188;2023-07-31T11:05:45;25.10;96.20
11599;DHT22;5855;48.840;9.188;2023-07-31T11:08:13;25.30;97.20
11599;DHT22;5855;48.840;9.188;2023-07-31T11:10:40;25.80;96.60
11599;DHT22;5855;48.840;9.188;2023-07-31T11:13:07;25.80;96.00
11599;DHT22;5855;48.840;9.188;2023-07-31T11:15:34;25.30;96.30
11599;DHT22;5855;48.840;9.188;2023-07-31T11:18:01;24.80;97.20
11599;DHT22;5855;48.840;9.188;2023-07-31T11:20:31;24.80;97.90
11599;DHT22;5855;48.840;9.188;2023-07-31T11:23:01;24.80;98.30
11599;DHT22;5855;48.840;9.188;2023-07-31T11:25:31;25.10;98.00
11599;DHT22;5855;48.840;9.188;2023-07-31T11:28:03;25.00;97.30
11599;DHT22;5855;48.840;9.188;2023-07-31T11:30:30;24.80;97.80
11599;DHT22;5855;48.840;9.188;2023-07-31T11:32:56;24.80;97.90
11599;DHT22;5855;48.840;9.188;2023-07-31T11:35:23;24.90;98.00
11599;DHT22;5855;48.840;9.188;2023-07-31T11:37:50;24.80;98.50
11599;DHT22;5855;48.840;9.188;2023-07-31T11:40:18;24.60;98.70
11599;DHT22;5855;48.840;9.188;2023-07-31T11:42:46;24.60;98.30
11599;DHT22;5855;48.840;9.188;2023-07-31T11:45:13;24.60;98.10
11599;DHT22;5855;48.840;9.188;2023-07-31T11:47:39;24.40;98.30
11599;DHT22;5855;48.840;9.188;2023-07-31T11:50:10;24.20;98.50
11599;DHT22;5855;48.840;9.188;2023-07-31T11:52:40;24.10;98.70
11599;DHT22;5855;48.840;9.188;2023-07-31T11:55:08;24.50;98.50
11599;DHT22;5855;48.840;9.188;2023-07-31T11:57:39;24.90;98.10
11599;DHT22;5855;48.840;9.188;2023-07-31T12:00:08;25.10;98.50
11599;DHT22;5855;48.840;9.188;2023-07-31T12:02:36;25.00;97.60
11599;DHT22;5855;48.840;9.188;2023-07-31T12:05:05;25.00;97.70
11599;DHT22;5855;48.840;9.188;2023-07-31T12:07:46;25.20;98.40
11599;DHT22;5855;48.840;9.188;2023-07-31T12:10:27;25.50;97.00
11599;DHT22;5855;48.840;9.188;2023-07-31T12:13:01;25.30;98.00
11599;DHT22;5855;48.840;9.188;2023-07-31T12:15:30;25.20;97.60
11599;DHT22;5855;48.840;9.188;2023-07-31T12:17:57;25.00;97.50
11599;DHT22;5855;48.840;9.188;2023-07-31T12:20:25;25.00;98.80
11599;DHT22;5855;48.840;9.188;2023-07-31T12:22:52;24.80;98.40
11599;DHT22;5855;48.840;9.188;2023-07-31T12:25:22;24.60;98.90
11599;DHT22;5855;48.840;9.188;2023-07-31T12:27:50;24.50;98.80
11599;DHT22;5855;48.840;9.188;2023-07-31T12:30:29;24.80;98.50
11599;DHT22;5855;48.840;9.188;2023-07-31T12:32:56;25.10;97.70
11599;DHT22;5855;48.840;9.188;2023-07-31T12:35:23;25.20;97.40
11599;DHT22;5855;48.840;9.188;2023-07-31T12:37:49;25.20;98.00
11599;DHT22;5855;48.840;9.188;2023-07-31T12:40:16;25.00;97.70
11599;DHT22;5855;48.840;9.188;2023-07-31T12:42:43;25.00;97.50
11599;DHT22;5855;48.840;9.188;2023-07-31T12:45:10;25.00;98.60
11599;DHT22;5855;48.840;9.188;2023-07-31T12:47:38;25.10;98.10
11599;DHT22;5855;48.840;9.188;2023-07-31T12:50:06;24.80;98.50
11599;DHT22;5855;48.840;9.188;2023-07-31T12:52:36;24.80;99.20
11599;DHT22;5855;48.840;9.188;2023-07-31T12:55:03;24.90;99.10
11599;DHT22;5855;48.840;9.188;2023-07-31T12:57:31;24.80;98.50
11599;DHT22;5855;48.840;9.188;2023-07-31T12:59:57;24.50;98.60
11599;DHT22;5855;48.840;9.188;2023-07-31T13:02:24;24.30;97.90
11599;DHT22;5855;48.840;9.188;2023-07-31T13:04:53;24.10;97.90
11599;DHT22;5855;48.840;9.188;2023-07-31T13:07:22;23.90;98.20
11599;DHT22;5855;48.840;9.188;2023-07-31T13:09:49;23.80;98.70
11599;DHT22;5855;48.840;9.188;2023-07-31T13:12:15;23.70;98.40
11599;DHT22;5855;48.840;9.188;2023-07-31T13:14:42;23.90;99.40
11599;DHT22;5855;48.840;9.188;2023-07-31T13:17:09;23.90;98.90
11599;DHT22;5855;48.840;9.188;2023-07-31T13:19:36;23.80;98.30
11599;DHT22;5855;48.840;9.188;2023-07-31T13:22:04;23.60;98.80
11599;DHT22;5855;48.840;9.188;2023-07-31T13:24:31;23.40;99.10
11599;DHT22;5855;48.840;9.188;2023-07-31T13:26:58;23.20;99.40
11599;DHT22;5855;48.840;9.188;2023-07-31T13:29:25;23.30;99.90
11599;DHT22;5855;48.840;9.188;2023-07-31T13:31:52;23.60;99.90
11599;DHT22;5855;48.840;9.188;2023-07-31T13:34:19;24.00;99.80
11599;DHT22;5855;48.840;9.188;2023-07-31T13:36:49;24.50;99.30
11599;DHT22;5855;48.840;9.188;2023-07-31T13:39:17;24.70;98.50
11599;DHT22;5855;48.840;9.188;2023-07-31T13:41:44;25.00;97.30
11599;DHT22;5855;48.840;9.188;2023-07-31T13:44:11;25.30;97.00
11599;DHT22;5855;48.840;9.188;2023-07-31T13:46:38;25.80;96.90
11599;DHT22;5855;48.840;9.188;2023-07-31T13:49:05;26.50;95.50
11599;DHT22;5855;48.840;9.188;2023-07-31T13:51:31;26.30;95.10
11599;DHT22;5855;48.840;9.188;2023-07-31T13:53:58;25.90;95.60
11599;DHT22;5855;48.840;9.188;2023-07-31T13:56:26;26.10;95.20
11599;DHT22;5855;48.840;9.188;2023-07-31T13:58:56;27.10;94.00
11599;DHT22;5855;48.840;9.188;2023-07-31T14:01:23;27.50;93.70
11599;DHT22;5855;48.840;9.188;2023-07-31T14:03:50;27.60;93.30
11599;DHT22;5855;48.840;9.188;2023-07-31T14:06:17;27.20;93.10
11599;DHT22;5855;48.840;9.188;2023-07-31T14:08:44;26.90;93.10
11599;DHT22;5855;48.840;9.188;2023-07-31T14:11:11;26.70;93.20
11599;DHT22;5855;48.840;9.188;2023-07-31T14:13:39;27.10;93.50
11599;DHT22;5855;48.840;9.188;2023-07-31T14:16:06;27.70;92.80
11599;DHT22;5855;48.840;9.188;2023-07-31T14:18:33;27.70;92.00
11599;DHT22;5855;48.840;9.188;2023-07-31T14:20:59;27.20;93.30
11599;DHT22;5855;48.840;9.188;2023-07-31T14:23:26;27.50;92.50
11599;DHT22;5855;48.840;9.188;2023-07-31T14:25:53;27.50;93.40
11599;DHT22;5855;48.840;9.188;2023-07-31T14:28:20;27.60;92.00
11599;DHT22;5855;48.840;9.188;2023-07-31T14:30:48;27.20;92.70
11599;DHT22;5855;48.840;9.188;2023-07-31T14:33:17;26.90;93.40
11599;DHT22;5855;48.840;9.188;2023-07-31T14:35:44;27.40;93.60
11599;DHT22;5855;48.840;9.188;2023-07-31T14:38:11;27.60;92.90
11599;DHT22;5855;48.840;9.188;2023-07-31T14:40:37;27.50;92.40
11599;DHT22;5855;48.840;9.188;2023-07-31T14:43:05;27.60;93.00
11599;DHT22;5855;48.840;9.188;2023-07-31T14:45:31;27.20;92.80
11599;DHT22;5855;48.840;9.188;2023-07-31T14:48:00;26.70;93.60
11599;DHT22;5855;48.840;9.188;2023-07-31T14:50:27;26.50;93.60
11599;DHT22;5855;48.840;9.188;2023-07-31T14:52:53;26.60;93.50
11599;DHT22;5855;48.840;9.188;2023-07-31T14:55:20;26.50;93.50
11599;DHT22;5855;48.840;9.188;2023-07-31T14:57:48;26.30;94.30
11599;DHT22;5855;48.840;9.188;2023-07-31T15:00:15;26.30;94.50
11599;DHT22;5855;48.840;9.188;2023-07-31T15:02:42;26.40;95.10
11599;DHT22;5855;48.840;9.188;2023-07-31T15:05:11;26.70;94.40
11599;DHT22;5855;48.840;9.188;2023-07-31T15:07:38;26.80;94.30
11599;DHT22;5855;48.840;9.188;2023-07-31T15:10:06;27.60;93.00
11599;DHT22;5855;48.840;9.188;2023-07-31T15:12:33;28.40;93.10
11599;DHT22;5855;48.840;9.188;2023-07-31T15:15:00;28.40;91.90
11599;DHT22;5855;48.840;9.188;2023-07-31T15:17:27;29.00;90.50
11599;DHT22;5855;48.840;9.188;2023-07-31T15:19:55;29.00;89.60
11599;DHT22;5855;48.840;9.188;2023-07-31T15:22:23;28.50;90.80
11599;DHT22;5855;48.840;9.188;2023-07-31T15:24:51;28.20;90.80
11599;DHT22;5855;48.840;9.188;2023-07-31T15:27:17;28.20;90.70
11599;DHT22;5855;48.840;9.188;2023-07-31T15:29:44;28.30;90.40
11599;DHT22;5855;48.840;9.188;2023-07-31T15:32:11;28.40;90.00
11599;DHT22;5855;48.840;9.188;2023-07-31T15:34:38;28.30;89.40
11599;DHT22;5855;48.840;9.188;2023-07-31T15:37:07;28.50;89.30
11599;DHT22;5855;48.840;9.188;2023-07-31T15:39:46;28.90;87.90
11599;DHT22;5855;48.840;9.188;2023-07-31T15:42:25;28.40;87.70
11599;DHT22;5855;48.840;9.188;2023-07-31T15:44:57;28.00;89.10
11599;DHT22;5855;48.840;9.188;2023-07-31T15:47:30;28.20;89.20
11599;DHT22;5855;48.840;9.188;2023-07-31T15:49:59;28.40;87.20
11599;DHT22;5855;48.840;9.188;2023-07-31T15:52:26;28.40;86.00
11599;DHT22;5855;48.840;9.188;2023-07-31T15:54:55;28.70;87.20